createdAt,value
2019-01-23T00:00:57.606Z,-3.70
2019-01-23T00:03:26.984Z,-3.70
2019-01-23T00:05:56.330Z,-3.60
2019-01-23T00:08:25.619Z,-3.60
2019-01-23T00:10:54.970Z,-3.60
2019-01-23T00:13:24.567Z,-3.60
2019-01-23T00:15:54.120Z,-3.60
2019-01-23T00:18:23.458Z,-3.60
2019-01-23T00:20:52.862Z,-3.50
2019-01-23T00:23:22.211Z,-3.50
2019-01-23T00:25:51.594Z,-3.60
2019-01-23T00:28:20.942Z,-3.50
2019-01-23T00:30:50.310Z,-3.40
2019-01-23T00:33:19.654Z,-3.40
2019-01-23T00:35:49.027Z,-3.40
2019-01-23T00:38:19.770Z,-3.50
2019-01-23T00:40:49.142Z,-3.50
2019-01-23T00:43:18.487Z,-3.50
2019-01-23T00:45:47.865Z,-3.40
2019-01-23T00:48:17.207Z,-3.40
2019-01-23T00:50:46.574Z,-3.40
2019-01-23T00:53:15.919Z,-3.40
2019-01-23T00:55:45.286Z,-3.40
2019-01-23T00:58:14.559Z,-3.50
2019-01-23T01:00:43.930Z,-3.50
2019-01-23T01:03:13.323Z,-3.50
2019-01-23T01:05:42.691Z,-3.40
2019-01-23T01:08:12.039Z,-3.30
2019-01-23T01:10:41.398Z,-3.30
2019-01-23T01:13:10.754Z,-3.30
2019-01-23T01:15:40.173Z,-3.40
2019-01-23T01:18:09.514Z,-3.40
2019-01-23T01:20:38.822Z,-3.40
2019-01-23T01:23:08.178Z,-3.50
2019-01-23T01:25:37.567Z,-3.40
2019-01-23T01:28:06.914Z,-3.40
2019-01-23T01:30:36.287Z,-3.40
2019-01-23T01:33:05.645Z,-3.40
2019-01-23T01:35:35.001Z,-3.40
2019-01-23T01:38:04.654Z,-3.40
2019-01-23T01:40:33.998Z,-3.40
2019-01-23T01:43:03.419Z,-3.40
2019-01-23T01:45:32.761Z,-3.30
2019-01-23T01:48:02.148Z,-3.40
2019-01-23T01:50:31.494Z,-3.40
2019-01-23T01:53:00.874Z,-3.30
2019-01-23T01:55:30.263Z,-3.30
2019-01-23T01:58:01.623Z,-3.30
2019-01-23T02:00:31.064Z,-3.30
2019-01-23T02:03:00.435Z,-3.40
2019-01-23T02:05:29.783Z,-3.30
2019-01-23T02:07:59.155Z,-3.30
2019-01-23T02:10:28.499Z,-3.30
2019-01-23T02:12:57.927Z,-3.30
2019-01-23T02:15:27.295Z,-3.30
2019-01-23T02:17:56.675Z,-3.30
2019-01-23T02:20:27.504Z,-3.30
2019-01-23T02:22:56.870Z,-3.30
2019-01-23T02:25:26.234Z,-3.30
2019-01-23T02:27:55.703Z,-3.30
2019-01-23T02:30:25.601Z,-3.30
2019-01-23T02:32:54.968Z,-3.30
2019-01-23T02:35:24.314Z,-3.30
2019-01-23T02:37:53.704Z,-3.40
2019-01-23T02:40:24.030Z,-3.30
2019-01-23T02:42:53.487Z,-3.30
2019-01-23T02:45:23.763Z,-3.30
2019-01-23T02:47:53.159Z,-3.20
2019-01-23T02:50:22.507Z,-3.30
2019-01-23T02:52:51.874Z,-3.20
2019-01-23T02:55:21.221Z,-3.20
2019-01-23T02:57:50.589Z,-3.20
2019-01-23T03:00:20.611Z,-3.30
2019-01-23T03:02:50.551Z,-3.30
2019-01-23T03:05:21.027Z,-3.20
2019-01-23T03:07:50.402Z,-3.20
2019-01-23T03:10:21.210Z,-3.20
2019-01-23T03:12:50.592Z,-3.20
2019-01-23T03:15:20.138Z,-3.20
2019-01-23T03:17:49.487Z,-3.20
2019-01-23T03:20:20.367Z,-3.20
2019-01-23T03:22:49.816Z,-3.20
2019-01-23T03:25:19.352Z,-3.10
2019-01-23T03:27:48.703Z,-3.10
2019-01-23T03:30:22.783Z,-3.10
2019-01-23T03:32:52.233Z,-3.10
2019-01-23T03:35:21.598Z,-3.20
2019-01-23T03:37:50.972Z,-3.20
2019-01-23T03:40:21.618Z,-3.30
2019-01-23T03:42:51.019Z,-3.30
2019-01-23T03:45:20.743Z,-3.30
2019-01-23T03:47:50.084Z,-3.20
2019-01-23T03:50:20.483Z,-3.20
2019-01-23T03:52:49.823Z,-3.20
2019-01-23T03:55:19.581Z,-3.30
2019-01-23T03:57:48.975Z,-3.20
2019-01-23T04:00:20.038Z,-3.20
2019-01-23T04:02:49.768Z,-3.20
2019-01-23T04:05:19.307Z,-3.20
2019-01-23T04:07:48.734Z,-3.20
2019-01-23T04:10:18.139Z,-3.20
2019-01-23T04:12:47.486Z,-3.20
2019-01-23T04:15:17.175Z,-3.20
2019-01-23T04:17:46.514Z,-3.20
2019-01-23T04:20:20.282Z,-3.20
2019-01-23T04:22:49.877Z,-3.30
2019-01-23T04:25:19.343Z,-3.20
2019-01-23T04:27:48.685Z,-3.20
2019-01-23T04:30:22.853Z,-3.20
2019-01-23T04:32:52.266Z,-3.20
2019-01-23T04:35:21.621Z,-3.20
2019-01-23T04:37:50.982Z,-3.10
2019-01-23T04:40:20.347Z,-3.20
2019-01-23T04:42:49.674Z,-3.20
2019-01-23T04:45:19.137Z,-3.20
2019-01-23T04:47:48.582Z,-3.20
2019-01-23T04:50:18.430Z,-3.30
2019-01-23T04:53:01.663Z,-3.40
2019-01-23T04:55:31.327Z,-3.30
2019-01-23T04:58:00.675Z,-3.30
2019-01-23T05:00:30.263Z,-3.20
2019-01-23T05:02:59.606Z,-3.20
2019-01-23T05:05:28.939Z,-3.20
2019-01-23T05:07:58.298Z,-3.30
2019-01-23T05:10:27.637Z,-3.30
2019-01-23T05:12:57.001Z,-3.30
2019-01-23T05:15:26.342Z,-3.30
2019-01-23T05:17:55.710Z,-3.30
2019-01-23T05:20:25.057Z,-3.30
2019-01-23T05:22:54.424Z,-3.30
2019-01-23T05:25:23.787Z,-3.30
2019-01-23T05:27:53.144Z,-3.30
2019-01-23T05:30:24.013Z,-3.30
2019-01-23T05:32:53.374Z,-3.30
2019-01-23T05:35:23.611Z,-3.30
2019-01-23T05:37:52.979Z,-3.40
2019-01-23T05:40:22.323Z,-3.40
2019-01-23T05:42:51.690Z,-3.40
2019-01-23T05:45:21.024Z,-3.30
2019-01-23T05:47:50.387Z,-3.30
2019-01-23T05:50:19.735Z,-3.30
2019-01-23T05:52:49.187Z,-3.30
2019-01-23T05:55:18.528Z,-3.40
2019-01-23T05:57:47.891Z,-3.40
2019-01-23T06:00:19.178Z,-3.40
2019-01-23T06:02:48.552Z,-3.30
2019-01-23T06:05:18.171Z,-3.30
2019-01-23T06:07:47.735Z,-3.30
2019-01-23T06:10:17.275Z,-3.20
2019-01-23T06:12:46.640Z,-3.30
2019-01-23T06:15:16.183Z,-3.30
2019-01-23T06:17:45.556Z,-3.30
2019-01-23T06:20:16.609Z,-3.30
2019-01-23T06:22:46.151Z,-3.30
2019-01-23T06:25:15.512Z,-3.30
2019-01-23T06:27:44.980Z,-3.30
2019-01-23T06:30:16.592Z,-3.30
2019-01-23T06:32:45.959Z,-3.30
2019-01-23T06:35:15.322Z,-3.20
2019-01-23T06:37:44.633Z,-3.30
2019-01-23T06:40:14.483Z,-3.30
2019-01-23T06:42:43.848Z,-3.30
2019-01-23T06:45:14.403Z,-3.30
2019-01-23T06:47:43.885Z,-3.30
2019-01-23T06:50:15.363Z,-3.40
2019-01-23T06:52:44.824Z,-3.40
2019-01-23T06:55:14.255Z,-3.40
2019-01-23T06:57:43.639Z,-3.40
2019-01-23T07:00:17.226Z,-3.50
2019-01-23T07:02:46.992Z,-3.40
2019-01-23T07:05:17.811Z,-3.40
2019-01-23T07:07:47.159Z,-3.30
2019-01-23T07:10:19.131Z,-3.30
2019-01-23T07:12:48.663Z,-3.30
2019-01-23T07:15:18.119Z,-3.30
2019-01-23T07:17:47.448Z,-3.30
2019-01-23T07:20:21.628Z,-3.40
2019-01-23T07:22:50.969Z,-3.40
2019-01-23T07:25:20.438Z,-3.40
2019-01-23T07:27:49.819Z,-3.40
2019-01-23T07:30:24.326Z,-3.40
2019-01-23T07:32:53.011Z,-3.40
2019-01-23T07:35:22.377Z,-3.40
2019-01-23T07:37:51.718Z,-3.30
2019-01-23T07:40:21.079Z,-3.30
2019-01-23T07:42:50.420Z,-3.30
2019-01-23T07:45:20.190Z,-3.30
2019-01-23T07:47:49.527Z,-3.30
2019-01-23T07:50:18.897Z,-3.30
2019-01-23T07:52:48.239Z,-3.30
2019-01-23T07:55:18.067Z,-3.30
2019-01-23T07:57:47.411Z,-3.30
2019-01-23T08:00:18.512Z,-3.20
2019-01-23T08:02:47.847Z,-3.30
2019-01-23T08:05:19.771Z,-3.30
2019-01-23T08:07:49.222Z,-3.30
2019-01-23T08:10:18.849Z,-3.30
2019-01-23T08:12:48.195Z,-3.20
2019-01-23T08:15:29.500Z,-3.20
2019-01-23T08:17:58.847Z,-3.30
2019-01-23T08:20:28.471Z,-3.30
2019-01-23T08:22:57.948Z,-3.30
2019-01-23T08:25:27.417Z,-3.30
2019-01-23T08:27:56.967Z,-3.30
2019-01-23T08:30:26.668Z,-3.30
2019-01-23T08:32:56.222Z,-3.40
2019-01-23T08:35:25.943Z,-3.40
2019-01-23T08:37:55.298Z,-3.20
2019-01-23T08:40:24.685Z,-3.30
2019-01-23T08:42:54.078Z,-3.30
2019-01-23T08:45:23.479Z,-3.30
2019-01-23T08:47:52.820Z,-3.20
2019-01-23T08:50:28.197Z,-3.30
2019-01-23T08:52:57.547Z,-3.20
2019-01-23T08:55:26.889Z,-3.20
2019-01-23T08:57:56.256Z,-3.20
2019-01-23T09:00:25.594Z,-3.30
2019-01-23T09:02:54.956Z,-3.30
2019-01-23T09:05:24.308Z,-3.20
2019-01-23T09:07:53.671Z,-3.20
2019-01-23T09:10:23.227Z,-3.10
2019-01-23T09:12:52.587Z,-3.20
2019-01-23T09:15:21.939Z,-3.10
2019-01-23T09:17:51.291Z,-3.00
2019-01-23T09:20:20.757Z,-3.00
2019-01-23T09:22:50.115Z,-3.10
2019-01-23T09:25:21.034Z,-3.00
2019-01-23T09:27:50.395Z,-3.00
2019-01-23T09:30:28.427Z,-3.10
2019-01-23T09:33:35.805Z,-3.10
2019-01-23T09:36:33.675Z,-3.10
2019-01-23T09:39:23.119Z,-3.00
2019-01-23T09:42:02.247Z,-3.00
2019-01-23T09:45:11.612Z,-3.00
2019-01-23T09:47:52.915Z,-2.90
2019-01-23T09:51:12.320Z,-3.00
2019-01-23T09:53:49.488Z,-3.00
2019-01-23T09:56:19.614Z,-3.00
2019-01-23T09:58:48.941Z,-3.10
2019-01-23T10:01:18.349Z,-3.10
2019-01-23T10:03:47.760Z,-3.10
2019-01-23T10:06:17.123Z,-3.10
2019-01-23T10:08:46.525Z,-3.10
2019-01-23T10:11:15.867Z,-3.10
2019-01-23T10:13:45.282Z,-3.20
2019-01-23T10:16:16.760Z,-3.20
2019-01-23T10:18:46.127Z,-3.20
2019-01-23T10:21:15.590Z,-3.20
2019-01-23T10:23:44.964Z,-3.20
2019-01-23T10:26:14.339Z,-3.10
2019-01-23T10:28:43.711Z,-3.00
2019-01-23T10:31:13.052Z,-2.90
2019-01-23T10:33:42.423Z,-2.90
2019-01-23T10:36:11.967Z,-2.90
2019-01-23T10:38:41.263Z,-2.80
2019-01-23T10:41:28.859Z,-2.80
2019-01-23T10:44:09.807Z,-2.90
2019-01-23T10:46:50.423Z,-2.90
2019-01-23T10:49:31.656Z,-2.90
2019-01-23T10:52:12.223Z,-2.80
2019-01-23T10:54:53.250Z,-2.90
2019-01-23T10:57:34.573Z,-2.90
2019-01-23T11:00:16.080Z,-2.90
2019-01-23T11:02:56.823Z,-2.90
2019-01-23T11:05:37.464Z,-3.00
2019-01-23T11:08:18.803Z,-3.00
2019-01-23T11:10:59.599Z,-3.00
2019-01-23T11:13:40.979Z,-2.90
2019-01-23T11:16:22.567Z,-2.80
2019-01-23T11:19:03.256Z,-2.80
2019-01-23T11:21:44.675Z,-2.80
2019-01-23T11:24:25.835Z,-2.80
2019-01-23T11:27:06.799Z,-2.80
2019-01-23T11:29:48.131Z,-2.80
2019-01-23T11:32:29.147Z,-2.90
2019-01-23T11:35:09.820Z,-2.90
2019-01-23T11:37:50.775Z,-2.90
2019-01-23T11:40:25.627Z,-2.90
2019-01-23T11:42:55.176Z,-2.90
2019-01-23T11:45:24.629Z,-2.90
2019-01-23T11:47:54.071Z,-2.90
2019-01-23T11:50:23.648Z,-2.90
2019-01-23T11:52:53.519Z,-2.80
2019-01-23T11:55:22.975Z,-2.80
2019-01-23T11:57:52.344Z,-2.70
2019-01-23T12:00:22.731Z,-2.70
2019-01-23T12:02:52.068Z,-2.70
2019-01-23T12:05:22.363Z,-2.80
2019-01-23T12:07:51.832Z,-2.80
2019-01-23T12:10:22.692Z,-3.00
2019-01-23T12:12:52.032Z,-3.00
2019-01-23T12:15:22.832Z,-3.10
2019-01-23T12:17:52.361Z,-3.00
2019-01-23T12:20:21.912Z,-3.00
2019-01-23T12:22:51.687Z,-3.00
2019-01-23T12:25:21.056Z,-2.90
2019-01-23T12:27:50.423Z,-2.90
2019-01-23T12:30:22.596Z,-2.90
2019-01-23T12:32:51.970Z,-2.90
2019-01-23T12:35:21.311Z,-2.90
2019-01-23T12:37:50.678Z,-2.90
2019-01-23T12:40:20.028Z,-2.90
2019-01-23T12:42:49.409Z,-2.80
2019-01-23T12:45:21.028Z,-2.90
2019-01-23T12:47:50.399Z,-2.90
2019-01-23T12:50:22.491Z,-2.90
2019-01-23T12:52:51.959Z,-2.90
2019-01-23T12:55:21.319Z,-2.80
2019-01-23T12:57:50.681Z,-2.80
2019-01-23T13:00:22.789Z,-2.80
2019-01-23T13:02:52.343Z,-2.80
2019-01-23T13:05:22.591Z,-2.70
2019-01-23T13:07:52.108Z,-2.80
2019-01-23T13:10:21.722Z,-2.90
2019-01-23T13:12:51.191Z,-2.90
2019-01-23T13:15:22.345Z,-3.00
2019-01-23T13:17:51.905Z,-3.10
2019-01-23T13:20:22.013Z,-3.00
2019-01-23T13:22:51.348Z,-3.00
2019-01-23T13:25:22.843Z,-3.00
2019-01-23T13:27:52.532Z,-3.00
2019-01-23T13:30:23.654Z,-3.10
2019-01-23T13:32:53.007Z,-3.10
2019-01-23T13:35:27.615Z,-3.10
2019-01-23T13:37:56.986Z,-3.10
2019-01-23T13:40:28.891Z,-3.00
2019-01-23T13:42:58.260Z,-2.90
2019-01-23T13:45:27.632Z,-2.90
2019-01-23T13:47:57.080Z,-3.00
2019-01-23T13:50:26.437Z,-3.00
2019-01-23T13:52:55.782Z,-2.90
2019-01-23T13:55:25.246Z,-2.80
2019-01-23T13:57:54.595Z,-2.90
2019-01-23T14:00:26.995Z,-2.90
2019-01-23T14:02:56.409Z,-3.00
2019-01-23T14:05:25.775Z,-3.00
2019-01-23T14:07:55.122Z,-3.10
2019-01-23T14:10:24.483Z,-3.10
2019-01-23T14:12:54.240Z,-3.00
2019-01-23T14:15:26.999Z,-3.00
2019-01-23T14:17:56.390Z,-3.10
2019-01-23T14:20:25.757Z,-3.10
2019-01-23T14:22:55.098Z,-3.10
2019-01-23T14:25:24.535Z,-3.00
2019-01-23T14:27:53.879Z,-3.00
2019-01-23T14:30:37.830Z,-3.00
2019-01-23T14:33:07.192Z,-3.00
2019-01-23T14:35:38.044Z,-3.10
2019-01-23T14:38:07.388Z,-3.20
2019-01-23T14:40:36.743Z,-3.20
2019-01-23T14:43:06.816Z,-3.30
2019-01-23T14:45:36.218Z,-3.30
2019-01-23T14:48:05.801Z,-3.30
2019-01-23T14:50:35.151Z,-3.20
2019-01-23T14:53:05.011Z,-3.20
2019-01-23T14:55:34.379Z,-3.20
2019-01-23T14:58:03.927Z,-3.20
2019-01-23T15:00:33.551Z,-3.20
2019-01-23T15:03:02.886Z,-3.30
2019-01-23T15:05:32.262Z,-3.30
2019-01-23T15:08:01.611Z,-3.30
2019-01-23T15:10:31.783Z,-3.30
2019-01-23T15:13:01.448Z,-3.30
2019-01-23T15:15:30.807Z,-3.30
2019-01-23T15:18:00.206Z,-3.30
2019-01-23T15:20:37.832Z,-3.30
2019-01-23T15:23:07.270Z,-3.30
2019-01-23T15:25:36.654Z,-3.30
2019-01-23T15:28:06.194Z,-3.30
2019-01-23T15:30:35.575Z,-3.40
2019-01-23T15:33:05.223Z,-3.40
2019-01-23T15:35:34.683Z,-3.40
2019-01-23T15:38:04.043Z,-3.40
2019-01-23T15:40:35.779Z,-3.40
2019-01-23T15:43:05.331Z,-3.40
2019-01-23T15:45:34.701Z,-3.40
2019-01-23T15:48:04.143Z,-3.40
2019-01-23T15:50:33.612Z,-3.40
2019-01-23T15:53:02.950Z,-3.40
2019-01-23T15:55:32.821Z,-3.50
2019-01-23T15:58:02.155Z,-3.50
2019-01-23T16:00:32.802Z,-3.50
2019-01-23T16:03:02.139Z,-3.50
2019-01-23T16:05:31.482Z,-3.50
2019-01-23T16:08:00.847Z,-3.60
2019-01-23T16:10:31.104Z,-3.60
2019-01-23T16:13:00.470Z,-3.60
2019-01-23T16:15:30.593Z,-3.60
2019-01-23T16:17:59.955Z,-3.60
2019-01-23T16:20:29.600Z,-3.60
2019-01-23T16:22:58.950Z,-3.60
2019-01-23T16:25:28.316Z,-3.60
2019-01-23T16:27:57.687Z,-3.60
2019-01-23T16:30:31.411Z,-3.60
2019-01-23T16:33:00.788Z,-3.60
2019-01-23T16:35:30.183Z,-3.60
2019-01-23T16:37:59.854Z,-3.60
2019-01-23T16:40:29.195Z,-3.70
2019-01-23T16:42:58.566Z,-3.70
2019-01-23T16:45:28.012Z,-3.70
2019-01-23T16:47:57.379Z,-3.70
2019-01-23T16:50:27.036Z,-3.60
2019-01-23T16:52:56.496Z,-3.60
2019-01-23T16:55:25.830Z,-3.60
2019-01-23T16:57:55.698Z,-3.60
2019-01-23T17:00:25.827Z,-3.60
2019-01-23T17:02:55.191Z,-3.60
2019-01-23T17:05:27.446Z,-3.60
2019-01-23T17:07:57.590Z,-3.70
2019-01-23T17:10:27.187Z,-3.70
2019-01-23T17:12:56.667Z,-3.70
2019-01-23T17:15:26.019Z,-3.70
2019-01-23T17:17:55.393Z,-3.70
2019-01-23T17:20:42.299Z,-3.70
2019-01-23T17:23:11.667Z,-3.70
2019-01-23T17:25:41.055Z,-3.70
2019-01-23T17:28:12.091Z,-3.70
2019-01-23T17:30:41.473Z,-3.70
2019-01-23T17:33:10.835Z,-3.80
2019-01-23T17:35:40.190Z,-3.70
2019-01-23T17:38:09.551Z,-3.70
2019-01-23T17:40:38.899Z,-3.70
2019-01-23T17:43:08.647Z,-3.70
2019-01-23T17:45:39.219Z,-3.70
2019-01-23T17:48:10.793Z,-3.70
2019-01-23T17:50:40.370Z,-3.80
2019-01-23T17:53:09.703Z,-3.70
2019-01-23T17:55:39.959Z,-3.80
2019-01-23T17:58:11.443Z,-3.80
2019-01-23T18:00:44.790Z,-3.80
2019-01-23T18:03:14.132Z,-3.80
2019-01-23T18:05:43.512Z,-3.80
2019-01-23T18:08:12.856Z,-3.80
2019-01-23T18:10:42.223Z,-3.80
2019-01-23T18:13:11.572Z,-3.80
2019-01-23T18:15:40.992Z,-3.70
2019-01-23T18:18:10.495Z,-3.70
2019-01-23T18:20:40.059Z,-3.80
2019-01-23T18:23:09.433Z,-3.80
2019-01-23T18:25:38.858Z,-3.80
2019-01-23T18:28:08.214Z,-3.80
2019-01-23T18:30:44.871Z,-3.80
2019-01-23T18:33:15.939Z,-3.80
2019-01-23T18:36:41.467Z,-3.90
2019-01-23T18:39:54.589Z,-4.00
2019-01-23T18:43:05.217Z,-4.00
2019-01-23T18:46:11.216Z,-4.10
2019-01-23T18:49:24.358Z,-4.10
2019-01-23T18:52:13.489Z,-4.10
2019-01-23T18:54:42.958Z,-4.10
2019-01-23T18:57:15.635Z,-4.10
2019-01-23T18:59:44.986Z,-4.00
2019-01-23T19:02:14.342Z,-4.10
2019-01-23T19:04:43.715Z,-4.10
2019-01-23T19:07:13.087Z,-4.00
2019-01-23T19:09:42.426Z,-4.10
2019-01-23T19:12:11.828Z,-4.10
2019-01-23T19:14:41.167Z,-4.20
2019-01-23T19:17:10.541Z,-4.20
2019-01-23T19:19:39.875Z,-4.20
2019-01-23T19:22:09.239Z,-4.20
2019-01-23T19:24:38.602Z,-4.10
2019-01-23T19:27:07.960Z,-4.20
2019-01-23T19:29:37.295Z,-4.20
2019-01-23T19:32:06.664Z,-4.30
2019-01-23T19:34:36.056Z,-4.40
2019-01-23T19:37:05.644Z,-4.40
2019-01-23T19:39:34.992Z,-4.40
2019-01-23T19:42:04.463Z,-4.50
2019-01-23T19:44:33.815Z,-4.50
2019-01-23T19:47:03.215Z,-4.40
2019-01-23T19:49:32.577Z,-4.40
2019-01-23T19:52:01.924Z,-4.40
2019-01-23T19:54:31.260Z,-4.30
2019-01-23T19:57:00.692Z,-4.30
2019-01-23T19:59:30.023Z,-4.30
2019-01-23T20:01:59.391Z,-4.40
2019-01-23T20:04:28.739Z,-4.40
2019-01-23T20:06:58.117Z,-4.40
2019-01-23T20:09:27.380Z,-4.40
2019-01-23T20:11:56.811Z,-4.50
2019-01-23T20:14:26.159Z,-4.40
2019-01-23T20:16:55.511Z,-4.50
2019-01-23T20:19:24.860Z,-4.50
2019-01-23T20:21:54.199Z,-4.50
2019-01-23T20:24:23.564Z,-4.50
2019-01-23T20:26:52.923Z,-4.50
2019-01-23T20:29:23.755Z,-4.50
2019-01-23T20:31:53.103Z,-4.50
2019-01-23T20:34:22.523Z,-4.50
2019-01-23T20:36:51.855Z,-4.50
2019-01-23T20:39:21.216Z,-4.50
2019-01-23T20:41:50.563Z,-4.50
2019-01-23T20:44:19.966Z,-4.50
2019-01-23T20:46:49.294Z,-4.50
2019-01-23T20:49:18.763Z,-4.50
2019-01-23T20:51:48.099Z,-4.50
2019-01-23T20:54:17.471Z,-4.50
2019-01-23T20:56:46.812Z,-4.50
2019-01-23T20:59:16.180Z,-4.50
2019-01-23T21:01:45.717Z,-4.50
2019-01-23T21:04:15.078Z,-4.50
2019-01-23T21:06:44.444Z,-4.50
2019-01-23T21:09:13.818Z,-4.50
2019-01-23T21:11:43.192Z,-4.50
2019-01-23T21:14:12.544Z,-4.50
2019-01-23T21:16:41.911Z,-4.50
2019-01-23T21:19:11.307Z,-4.50
2019-01-23T21:21:40.684Z,-4.40
2019-01-23T21:24:10.034Z,-4.40
2019-01-23T21:26:39.423Z,-4.40
2019-01-23T21:29:08.788Z,-4.40
2019-01-23T21:31:38.132Z,-4.40
2019-01-23T21:34:07.495Z,-4.30
2019-01-23T21:36:36.840Z,-4.30
2019-01-23T21:39:08.571Z,-4.30
2019-01-23T21:41:37.996Z,-4.30
2019-01-23T21:44:07.347Z,-4.30
2019-01-23T21:46:36.699Z,-4.30
2019-01-23T21:49:06.066Z,-4.30
2019-01-23T21:51:35.401Z,-4.30
2019-01-23T21:54:05.067Z,-4.30
2019-01-23T21:56:34.406Z,-4.20
2019-01-23T21:59:03.769Z,-4.20
2019-01-23T22:01:33.115Z,-4.20
2019-01-23T22:04:02.483Z,-4.20
2019-01-23T22:06:31.831Z,-4.10
2019-01-23T22:09:01.223Z,-4.10
2019-01-23T22:11:30.569Z,-4.10
2019-01-23T22:13:59.910Z,-4.10
2019-01-23T22:16:29.271Z,-4.10
2019-01-23T22:18:58.619Z,-4.10
2019-01-23T22:21:27.985Z,-4.10
2019-01-23T22:23:57.255Z,-4.00
2019-01-23T22:26:26.642Z,-4.10
2019-01-23T22:28:55.992Z,-4.10
2019-01-23T22:31:25.360Z,-4.10
2019-01-23T22:33:56.339Z,-4.10
2019-01-23T22:36:25.711Z,-4.10
2019-01-23T22:38:55.063Z,-4.20
2019-01-23T22:41:24.431Z,-4.20
2019-01-23T22:43:53.783Z,-4.20
2019-01-23T22:46:23.142Z,-4.20
2019-01-23T22:48:52.487Z,-4.20
2019-01-23T22:51:21.786Z,-4.20
2019-01-23T22:53:51.127Z,-4.30
2019-01-23T22:56:20.495Z,-4.30
2019-01-23T22:58:49.839Z,-4.30
2019-01-23T23:01:27.662Z,-4.40
2019-01-23T23:04:03.193Z,-4.40
2019-01-23T23:06:28.471Z,-4.50
2019-01-23T23:08:57.875Z,-4.50
2019-01-23T23:11:27.235Z,-4.50
2019-01-23T23:13:56.763Z,-4.60
2019-01-23T23:16:26.131Z,-4.60
2019-01-23T23:18:55.490Z,-4.60
2019-01-23T23:21:24.856Z,-4.70
2019-01-23T23:23:54.222Z,-4.70
2019-01-23T23:26:23.598Z,-4.70
2019-01-23T23:28:52.866Z,-4.80
2019-01-23T23:31:22.235Z,-4.80
2019-01-23T23:33:51.587Z,-4.80
2019-01-23T23:36:20.942Z,-4.80
2019-01-23T23:38:50.287Z,-4.80
2019-01-23T23:41:19.651Z,-4.80
2019-01-23T23:43:49.017Z,-4.80
2019-01-23T23:46:18.394Z,-4.80
2019-01-23T23:48:47.765Z,-4.90
2019-01-23T23:51:17.103Z,-4.90
2019-01-23T23:53:46.500Z,-4.90
2019-01-23T23:56:15.848Z,-4.80
2019-01-23T23:58:45.232Z,-4.80
